sensor_id;sensor_type;location;lat;lon;timestamp;P1;durP1;ratioP1;P2;durP2;ratioP2
13933;SDS011;7039;52.168;9.866;2023-09-12T00:01:54;25.27;;;14.13;;
13933;SDS011;7039;52.168;9.866;2023-09-12T00:04:21;21.63;;;12.40;;
13933;SDS011;7039;52.168;9.866;2023-09-12T00:06:47;20.63;;;13.43;;
13933;SDS011;7039;52.168;9.866;2023-09-12T00:09:14;16.27;;;12.90;;
13933;SDS011;7039;52.168;9.866;2023-09-12T00:11:40;24.57;;;12.33;;
13933;SDS011;7039;52.168;9.866;2023-09-12T00:14:08;17.90;;;12.57;;
13933;SDS011;7039;52.168;9.866;2023-09-12T00:16:36;21.10;;;12.17;;
13933;SDS011;7039;52.168;9.866;2023-09-12T00:19:02;19.53;;;12.30;;
13933;SDS011;7039;52.168;9.866;2023-09-12T00:21:29;16.83;;;11.87;;
13933;SDS011;7039;52.168;9.866;2023-09-12T00:23:55;24.47;;;12.70;;
13933;SDS011;7039;52.168;9.866;2023-09-12T00:26:21;18.17;;;13.03;;
13933;SDS011;7039;52.168;9.866;2023-09-12T00:28:48;21.97;;;13.33;;
13933;SDS011;7039;52.168;9.866;2023-09-12T00:31:14;20.83;;;14.60;;
13933;SDS011;7039;52.168;9.866;2023-09-12T00:33:42;17.97;;;13.10;;
13933;SDS011;7039;52.168;9.866;2023-09-12T00:36:08;17.03;;;12.73;;
13933;SDS011;7039;52.168;9.866;2023-09-12T00:38:35;18.87;;;12.37;;
13933;SDS011;7039;52.168;9.866;2023-09-12T00:41:01;18.13;;;13.87;;
13933;SDS011;7039;52.168;9.866;2023-09-12T00:43:28;19.47;;;14.63;;
13933;SDS011;7039;52.168;9.866;2023-09-12T00:45:54;24.80;;;15.73;;
13933;SDS011;7039;52.168;9.866;2023-09-12T00:48:21;22.43;;;15.73;;
13933;SDS011;7039;52.168;9.866;2023-09-12T00:50:50;24.73;;;15.83;;
13933;SDS011;7039;52.168;9.866;2023-09-12T00:53:18;27.67;;;16.10;;
13933;SDS011;7039;52.168;9.866;2023-09-12T00:55:46;22.67;;;14.50;;
13933;SDS011;7039;52.168;9.866;2023-09-12T00:58:19;18.83;;;13.73;;
13933;SDS011;7039;52.168;9.866;2023-09-12T01:00:46;20.27;;;14.13;;
13933;SDS011;7039;52.168;9.866;2023-09-12T01:03:13;33.40;;;16.07;;
13933;SDS011;7039;52.168;9.866;2023-09-12T01:05:40;23.37;;;13.33;;
13933;SDS011;7039;52.168;9.866;2023-09-12T01:08:09;26.83;;;15.40;;
13933;SDS011;7039;52.168;9.866;2023-09-12T01:10:35;20.73;;;15.53;;
13933;SDS011;7039;52.168;9.866;2023-09-12T01:13:02;22.33;;;16.07;;
13933;SDS011;7039;52.168;9.866;2023-09-12T01:15:29;20.50;;;14.90;;
13933;SDS011;7039;52.168;9.866;2023-09-12T01:17:56;20.07;;;13.80;;
13933;SDS011;7039;52.168;9.866;2023-09-12T01:20:24;21.23;;;16.10;;
13933;SDS011;7039;52.168;9.866;2023-09-12T01:22:53;19.10;;;13.37;;
13933;SDS011;7039;52.168;9.866;2023-09-12T01:25:45;23.30;;;15.20;;
13933;SDS011;7039;52.168;9.866;2023-09-12T01:28:28;22.60;;;14.93;;
13933;SDS011;7039;52.168;9.866;2023-09-12T01:30:56;21.73;;;14.93;;
13933;SDS011;7039;52.168;9.866;2023-09-12T01:33:26;22.80;;;14.37;;
13933;SDS011;7039;52.168;9.866;2023-09-12T01:35:53;20.93;;;13.97;;
13933;SDS011;7039;52.168;9.866;2023-09-12T01:38:19;17.70;;;12.33;;
13933;SDS011;7039;52.168;9.866;2023-09-12T01:40:47;17.40;;;13.93;;
13933;SDS011;7039;52.168;9.866;2023-09-12T01:43:15;17.33;;;14.13;;
13933;SDS011;7039;52.168;9.866;2023-09-12T01:45:45;18.27;;;13.30;;
13933;SDS011;7039;52.168;9.866;2023-09-12T01:48:13;17.63;;;13.20;;
13933;SDS011;7039;52.168;9.866;2023-09-12T01:50:45;17.77;;;13.20;;
13933;SDS011;7039;52.168;9.866;2023-09-12T01:53:11;18.30;;;13.57;;
13933;SDS011;7039;52.168;9.866;2023-09-12T01:55:39;15.70;;;14.00;;
13933;SDS011;7039;52.168;9.866;2023-09-12T01:58:06;21.10;;;13.87;;
13933;SDS011;7039;52.168;9.866;2023-09-12T02:00:33;21.23;;;14.13;;
13933;SDS011;7039;52.168;9.866;2023-09-12T02:03:03;22.40;;;14.97;;
13933;SDS011;7039;52.168;9.866;2023-09-12T02:05:30;17.33;;;13.87;;
13933;SDS011;7039;52.168;9.866;2023-09-12T02:07:57;20.40;;;14.73;;
13933;SDS011;7039;52.168;9.866;2023-09-12T02:10:25;17.90;;;14.60;;
13933;SDS011;7039;52.168;9.866;2023-09-12T02:12:51;20.23;;;14.30;;
13933;SDS011;7039;52.168;9.866;2023-09-12T02:15:18;20.80;;;15.63;;
13933;SDS011;7039;52.168;9.866;2023-09-12T02:17:44;21.67;;;15.27;;
13933;SDS011;7039;52.168;9.866;2023-09-12T02:20:12;17.93;;;15.63;;
13933;SDS011;7039;52.168;9.866;2023-09-12T02:22:39;23.87;;;16.07;;
13933;SDS011;7039;52.168;9.866;2023-09-12T02:25:05;19.33;;;15.77;;
13933;SDS011;7039;52.168;9.866;2023-09-12T02:27:34;19.67;;;15.33;;
13933;SDS011;7039;52.168;9.866;2023-09-12T02:30:00;19.03;;;15.63;;
13933;SDS011;7039;52.168;9.866;2023-09-12T02:32:27;22.37;;;15.90;;
13933;SDS011;7039;52.168;9.866;2023-09-12T02:34:54;27.20;;;17.17;;
13933;SDS011;7039;52.168;9.866;2023-09-12T02:37:23;23.17;;;15.37;;
13933;SDS011;7039;52.168;9.866;2023-09-12T02:39:50;25.43;;;16.70;;
13933;SDS011;7039;52.168;9.866;2023-09-12T02:42:16;22.23;;;17.03;;
13933;SDS011;7039;52.168;9.866;2023-09-12T02:44:43;20.97;;;14.93;;
13933;SDS011;7039;52.168;9.866;2023-09-12T02:47:09;19.73;;;15.47;;
13933;SDS011;7039;52.168;9.866;2023-09-12T02:49:35;22.17;;;15.90;;
13933;SDS011;7039;52.168;9.866;2023-09-12T02:52:02;21.90;;;17.40;;
13933;SDS011;7039;52.168;9.866;2023-09-12T02:54:30;21.33;;;15.90;;
13933;SDS011;7039;52.168;9.866;2023-09-12T02:56:57;21.70;;;17.70;;
13933;SDS011;7039;52.168;9.866;2023-09-12T02:59:23;23.90;;;16.63;;
13933;SDS011;7039;52.168;9.866;2023-09-12T03:01:50;22.00;;;16.17;;
13933;SDS011;7039;52.168;9.866;2023-09-12T03:04:16;23.27;;;17.23;;
13933;SDS011;7039;52.168;9.866;2023-09-12T03:06:42;21.87;;;16.13;;
13933;SDS011;7039;52.168;9.866;2023-09-12T03:09:09;23.27;;;15.57;;
13933;SDS011;7039;52.168;9.866;2023-09-12T03:11:37;25.77;;;17.03;;
13933;SDS011;7039;52.168;9.866;2023-09-12T03:14:04;21.43;;;15.20;;
13933;SDS011;7039;52.168;9.866;2023-09-12T03:16:31;22.13;;;17.83;;
13933;SDS011;7039;52.168;9.866;2023-09-12T03:18:57;22.27;;;15.43;;
13933;SDS011;7039;52.168;9.866;2023-09-12T03:21:26;20.57;;;15.03;;
13933;SDS011;7039;52.168;9.866;2023-09-12T03:23:52;25.10;;;16.10;;
13933;SDS011;7039;52.168;9.866;2023-09-12T03:26:19;23.67;;;18.17;;
13933;SDS011;7039;52.168;9.866;2023-09-12T03:28:47;26.37;;;18.27;;
13933;SDS011;7039;52.168;9.866;2023-09-12T03:31:15;20.27;;;17.30;;
13933;SDS011;7039;52.168;9.866;2023-09-12T03:33:41;23.20;;;16.97;;
13933;SDS011;7039;52.168;9.866;2023-09-12T03:36:12;24.77;;;17.67;;
13933;SDS011;7039;52.168;9.866;2023-09-12T03:38:39;24.27;;;18.90;;
13933;SDS011;7039;52.168;9.866;2023-09-12T03:41:06;25.10;;;18.60;;
13933;SDS011;7039;52.168;9.866;2023-09-12T03:43:33;19.43;;;16.40;;
13933;SDS011;7039;52.168;9.866;2023-09-12T03:46:01;18.63;;;15.67;;
13933;SDS011;7039;52.168;9.866;2023-09-12T03:48:28;23.03;;;15.63;;
13933;SDS011;7039;52.168;9.866;2023-09-12T03:50:55;26.00;;;18.10;;
13933;SDS011;7039;52.168;9.866;2023-09-12T03:53:22;20.27;;;18.10;;
13933;SDS011;7039;52.168;9.866;2023-09-12T03:55:48;25.37;;;19.53;;
13933;SDS011;7039;52.168;9.866;2023-09-12T03:58:15;22.93;;;18.13;;
13933;SDS011;7039;52.168;9.866;2023-09-12T04:00:41;20.83;;;16.70;;
13933;SDS011;7039;52.168;9.866;2023-09-12T04:03:10;31.67;;;21.40;;
13933;SDS011;7039;52.168;9.866;2023-09-12T04:05:36;26.77;;;20.27;;
13933;SDS011;7039;52.168;9.866;2023-09-12T04:08:03;28.87;;;22.63;;
13933;SDS011;7039;52.168;9.866;2023-09-12T04:10:30;30.93;;;22.00;;
13933;SDS011;7039;52.168;9.866;2023-09-12T04:12:57;28.53;;;21.57;;
13933;SDS011;7039;52.168;9.866;2023-09-12T04:15:24;30.77;;;23.07;;
13933;SDS011;7039;52.168;9.866;2023-09-12T04:17:50;32.97;;;20.90;;
13933;SDS011;7039;52.168;9.866;2023-09-12T04:20:18;26.17;;;18.70;;
13933;SDS011;7039;52.168;9.866;2023-09-12T04:22:44;27.03;;;21.97;;
13933;SDS011;7039;52.168;9.866;2023-09-12T04:25:11;27.57;;;20.97;;
13933;SDS011;7039;52.168;9.866;2023-09-12T04:27:37;27.07;;;19.07;;
13933;SDS011;7039;52.168;9.866;2023-09-12T04:30:04;26.20;;;20.57;;
13933;SDS011;7039;52.168;9.866;2023-09-12T04:32:31;26.33;;;20.07;;
13933;SDS011;7039;52.168;9.866;2023-09-12T04:34:58;27.10;;;19.57;;
13933;SDS011;7039;52.168;9.866;2023-09-12T04:37:25;26.47;;;18.37;;
13933;SDS011;7039;52.168;9.866;2023-09-12T04:39:52;29.70;;;21.57;;
13933;SDS011;7039;52.168;9.866;2023-09-12T04:42:18;28.03;;;21.20;;
13933;SDS011;7039;52.168;9.866;2023-09-12T04:44:45;26.83;;;19.67;;
13933;SDS011;7039;52.168;9.866;2023-09-12T04:47:12;25.30;;;19.60;;
13933;SDS011;7039;52.168;9.866;2023-09-12T04:49:38;24.50;;;18.43;;
13933;SDS011;7039;52.168;9.866;2023-09-12T04:52:05;26.27;;;19.60;;
13933;SDS011;7039;52.168;9.866;2023-09-12T04:54:33;22.90;;;19.00;;
13933;SDS011;7039;52.168;9.866;2023-09-12T04:56:59;28.80;;;20.57;;
13933;SDS011;7039;52.168;9.866;2023-09-12T04:59:26;23.17;;;19.90;;
13933;SDS011;7039;52.168;9.866;2023-09-12T05:01:52;26.73;;;19.77;;
13933;SDS011;7039;52.168;9.866;2023-09-12T05:04:19;26.23;;;20.73;;
13933;SDS011;7039;52.168;9.866;2023-09-12T05:06:46;28.17;;;20.83;;
13933;SDS011;7039;52.168;9.866;2023-09-12T05:09:12;29.27;;;22.40;;
13933;SDS011;7039;52.168;9.866;2023-09-12T05:11:40;30.87;;;21.73;;
13933;SDS011;7039;52.168;9.866;2023-09-12T05:14:07;26.33;;;19.33;;
13933;SDS011;7039;52.168;9.866;2023-09-12T05:16:33;26.43;;;18.73;;
13933;SDS011;7039;52.168;9.866;2023-09-12T05:19:00;22.90;;;19.37;;
13933;SDS011;7039;52.168;9.866;2023-09-12T05:21:26;32.23;;;22.83;;
13933;SDS011;7039;52.168;9.866;2023-09-12T05:23:52;31.13;;;23.60;;
13933;SDS011;7039;52.168;9.866;2023-09-12T05:26:19;28.93;;;24.10;;
13933;SDS011;7039;52.168;9.866;2023-09-12T05:28:47;33.57;;;22.20;;
13933;SDS011;7039;52.168;9.866;2023-09-12T05:31:13;35.83;;;24.27;;
13933;SDS011;7039;52.168;9.866;2023-09-12T05:33:40;29.60;;;21.80;;
13933;SDS011;7039;52.168;9.866;2023-09-12T05:36:06;36.50;;;25.17;;
13933;SDS011;7039;52.168;9.866;2023-09-12T05:38:32;33.17;;;25.73;;
13933;SDS011;7039;52.168;9.866;2023-09-12T05:40:59;35.40;;;26.97;;
13933;SDS011;7039;52.168;9.866;2023-09-12T05:43:25;37.37;;;25.43;;
13933;SDS011;7039;52.168;9.866;2023-09-12T05:45:53;32.73;;;25.80;;
13933;SDS011;7039;52.168;9.866;2023-09-12T05:48:20;37.83;;;27.73;;
13933;SDS011;7039;52.168;9.866;2023-09-12T05:50:46;35.83;;;26.60;;
13933;SDS011;7039;52.168;9.866;2023-09-12T05:53:13;36.07;;;27.17;;
13933;SDS011;7039;52.168;9.866;2023-09-12T05:55:39;34.73;;;27.57;;
13933;SDS011;7039;52.168;9.866;2023-09-12T05:58:06;31.40;;;26.00;;
13933;SDS011;7039;52.168;9.866;2023-09-12T06:00:32;32.90;;;23.07;;
13933;SDS011;7039;52.168;9.866;2023-09-12T06:03:00;34.67;;;23.00;;
13933;SDS011;7039;52.168;9.866;2023-09-12T06:05:27;34.40;;;24.17;;
13933;SDS011;7039;52.168;9.866;2023-09-12T06:07:53;32.83;;;25.17;;
13933;SDS011;7039;52.168;9.866;2023-09-12T06:10:20;34.40;;;25.93;;
13933;SDS011;7039;52.168;9.866;2023-09-12T06:12:46;37.87;;;25.73;;
13933;SDS011;7039;52.168;9.866;2023-09-12T06:15:14;37.70;;;25.40;;
13933;SDS011;7039;52.168;9.866;2023-09-12T06:17:41;35.57;;;26.30;;
13933;SDS011;7039;52.168;9.866;2023-09-12T06:20:09;32.63;;;25.97;;
13933;SDS011;7039;52.168;9.866;2023-09-12T06:22:36;39.40;;;27.73;;
13933;SDS011;7039;52.168;9.866;2023-09-12T06:25:02;35.87;;;27.57;;
13933;SDS011;7039;52.168;9.866;2023-09-12T06:27:29;39.20;;;28.47;;
13933;SDS011;7039;52.168;9.866;2023-09-12T06:29:56;40.70;;;30.83;;
13933;SDS011;7039;52.168;9.866;2023-09-12T06:32:23;45.53;;;29.20;;
13933;SDS011;7039;52.168;9.866;2023-09-12T06:34:49;39.60;;;28.63;;
13933;SDS011;7039;52.168;9.866;2023-09-12T06:37:17;44.47;;;29.90;;
13933;SDS011;7039;52.168;9.866;2023-09-12T06:39:43;35.77;;;25.67;;
13933;SDS011;7039;52.168;9.866;2023-09-12T06:42:10;39.33;;;28.83;;
13933;SDS011;7039;52.168;9.866;2023-09-12T06:44:36;41.57;;;31.57;;
13933;SDS011;7039;52.168;9.866;2023-09-12T06:47:03;42.53;;;30.63;;
13933;SDS011;7039;52.168;9.866;2023-09-12T06:49:30;38.30;;;29.87;;
13933;SDS011;7039;52.168;9.866;2023-09-12T06:51:57;33.93;;;26.53;;
13933;SDS011;7039;52.168;9.866;2023-09-12T06:54:25;43.67;;;29.17;;
13933;SDS011;7039;52.168;9.866;2023-09-12T06:56:51;35.17;;;26.03;;
13933;SDS011;7039;52.168;9.866;2023-09-12T06:59:18;41.07;;;28.43;;
13933;SDS011;7039;52.168;9.866;2023-09-12T07:01:44;40.93;;;28.60;;
13933;SDS011;7039;52.168;9.866;2023-09-12T07:04:11;37.63;;;28.17;;
13933;SDS011;7039;52.168;9.866;2023-09-12T07:06:37;35.33;;;25.97;;
13933;SDS011;7039;52.168;9.866;2023-09-12T07:09:04;37.40;;;26.83;;
13933;SDS011;7039;52.168;9.866;2023-09-12T07:11:34;41.80;;;27.10;;
13933;SDS011;7039;52.168;9.866;2023-09-12T07:14:01;38.23;;;27.30;;
13933;SDS011;7039;52.168;9.866;2023-09-12T07:16:28;37.30;;;27.23;;
13933;SDS011;7039;52.168;9.866;2023-09-12T07:18:56;34.27;;;24.63;;
13933;SDS011;7039;52.168;9.866;2023-09-12T07:21:22;42.27;;;28.40;;
13933;SDS011;7039;52.168;9.866;2023-09-12T07:23:49;34.93;;;24.60;;
13933;SDS011;7039;52.168;9.866;2023-09-12T07:26:15;33.37;;;25.63;;
13933;SDS011;7039;52.168;9.866;2023-09-12T07:28:43;31.97;;;22.93;;
13933;SDS011;7039;52.168;9.866;2023-09-12T07:31:10;30.93;;;23.20;;
13933;SDS011;7039;52.168;9.866;2023-09-12T07:33:36;28.20;;;23.20;;
13933;SDS011;7039;52.168;9.866;2023-09-12T07:36:03;24.73;;;19.93;;
13933;SDS011;7039;52.168;9.866;2023-09-12T07:38:30;29.33;;;21.97;;
13933;SDS011;7039;52.168;9.866;2023-09-12T07:40:56;28.67;;;20.70;;
13933;SDS011;7039;52.168;9.866;2023-09-12T07:43:24;26.40;;;20.80;;
13933;SDS011;7039;52.168;9.866;2023-09-12T07:45:55;21.97;;;19.30;;
13933;SDS011;7039;52.168;9.866;2023-09-12T07:48:22;22.20;;;18.77;;
13933;SDS011;7039;52.168;9.866;2023-09-12T07:50:48;20.23;;;17.27;;
13933;SDS011;7039;52.168;9.866;2023-09-12T07:53:21;20.07;;;17.17;;
13933;SDS011;7039;52.168;9.866;2023-09-12T07:55:50;19.17;;;15.83;;
13933;SDS011;7039;52.168;9.866;2023-09-12T07:58:17;19.37;;;15.43;;
13933;SDS011;7039;52.168;9.866;2023-09-12T08:00:44;19.33;;;16.13;;
13933;SDS011;7039;52.168;9.866;2023-09-12T08:03:12;21.97;;;14.93;;
13933;SDS011;7039;52.168;9.866;2023-09-12T08:05:38;20.23;;;15.17;;
13933;SDS011;7039;52.168;9.866;2023-09-12T08:08:05;20.63;;;16.80;;
13933;SDS011;7039;52.168;9.866;2023-09-12T08:10:31;18.93;;;15.90;;
13933;SDS011;7039;52.168;9.866;2023-09-12T08:12:58;18.50;;;14.77;;
13933;SDS011;7039;52.168;9.866;2023-09-12T08:15:24;15.83;;;14.23;;
13933;SDS011;7039;52.168;9.866;2023-09-12T08:17:51;19.40;;;13.93;;
13933;SDS011;7039;52.168;9.866;2023-09-12T08:20:19;16.57;;;13.30;;
13933;SDS011;7039;52.168;9.866;2023-09-12T08:22:46;20.63;;;14.57;;
13933;SDS011;7039;52.168;9.866;2023-09-12T08:25:13;14.43;;;12.93;;
13933;SDS011;7039;52.168;9.866;2023-09-12T08:27:40;15.37;;;13.57;;
13933;SDS011;7039;52.168;9.866;2023-09-12T08:30:08;19.57;;;12.70;;
13933;SDS011;7039;52.168;9.866;2023-09-12T08:32:36;14.73;;;10.83;;
13933;SDS011;7039;52.168;9.866;2023-09-12T08:35:04;14.40;;;11.03;;
13933;SDS011;7039;52.168;9.866;2023-09-12T08:37:33;16.30;;;13.37;;
13933;SDS011;7039;52.168;9.866;2023-09-12T08:39:59;22.80;;;15.77;;
13933;SDS011;7039;52.168;9.866;2023-09-12T08:42:27;21.50;;;19.10;;
13933;SDS011;7039;52.168;9.866;2023-09-12T08:44:53;22.10;;;19.03;;
13933;SDS011;7039;52.168;9.866;2023-09-12T08:47:21;31.33;;;25.50;;
13933;SDS011;7039;52.168;9.866;2023-09-12T08:49:49;36.37;;;29.20;;
13933;SDS011;7039;52.168;9.866;2023-09-12T08:52:15;32.60;;;28.20;;
13933;SDS011;7039;52.168;9.866;2023-09-12T08:54:43;40.37;;;27.47;;
13933;SDS011;7039;52.168;9.866;2023-09-12T08:57:10;32.47;;;27.83;;
13933;SDS011;7039;52.168;9.866;2023-09-12T08:59:38;36.67;;;25.97;;
13933;SDS011;7039;52.168;9.866;2023-09-12T09:02:07;30.80;;;25.07;;
13933;SDS011;7039;52.168;9.866;2023-09-12T09:04:35;32.03;;;24.23;;
13933;SDS011;7039;52.168;9.866;2023-09-12T09:07:03;30.43;;;23.60;;
13933;SDS011;7039;52.168;9.866;2023-09-12T09:09:31;28.93;;;22.40;;
13933;SDS011;7039;52.168;9.866;2023-09-12T09:11:59;27.77;;;21.00;;
13933;SDS011;7039;52.168;9.866;2023-09-12T09:14:26;23.17;;;19.13;;
13933;SDS011;7039;52.168;9.866;2023-09-12T09:16:52;21.20;;;18.07;;
13933;SDS011;7039;52.168;9.866;2023-09-12T09:19:20;23.27;;;14.60;;
13933;SDS011;7039;52.168;9.866;2023-09-12T09:21:46;17.30;;;13.20;;
13933;SDS011;7039;52.168;9.866;2023-09-12T09:24:13;12.02;;;9.85;;
13933;SDS011;7039;52.168;9.866;2023-09-12T09:26:42;10.70;;;8.43;;
13933;SDS011;7039;52.168;9.866;2023-09-12T09:29:12;11.70;;;9.55;;
13933;SDS011;7039;52.168;9.866;2023-09-12T09:31:40;11.10;;;9.68;;
13933;SDS011;7039;52.168;9.866;2023-09-12T09:34:10;12.02;;;10.13;;
13933;SDS011;7039;52.168;9.866;2023-09-12T09:36:40;14.75;;;11.32;;
13933;SDS011;7039;52.168;9.866;2023-09-12T09:39:07;9.70;;;8.65;;
13933;SDS011;7039;52.168;9.866;2023-09-12T09:41:34;9.98;;;8.00;;
13933;SDS011;7039;52.168;9.866;2023-09-12T09:44:01;10.17;;;8.93;;
13933;SDS011;7039;52.168;9.866;2023-09-12T09:46:30;9.57;;;8.00;;
13933;SDS011;7039;52.168;9.866;2023-09-12T09:48:57;9.97;;;8.47;;
13933;SDS011;7039;52.168;9.866;2023-09-12T09:51:24;9.27;;;8.23;;
13933;SDS011;7039;52.168;9.866;2023-09-12T09:53:51;8.97;;;8.03;;
13933;SDS011;7039;52.168;9.866;2023-09-12T09:56:22;10.20;;;6.93;;
13933;SDS011;7039;52.168;9.866;2023-09-12T09:58:50;9.15;;;6.85;;
13933;SDS011;7039;52.168;9.866;2023-09-12T10:01:19;7.87;;;5.70;;
13933;SDS011;7039;52.168;9.866;2023-09-12T10:03:48;8.83;;;5.40;;
13933;SDS011;7039;52.168;9.866;2023-09-12T10:06:16;7.90;;;5.50;;
13933;SDS011;7039;52.168;9.866;2023-09-12T10:08:44;7.43;;;5.93;;
13933;SDS011;7039;52.168;9.866;2023-09-12T10:11:12;6.90;;;4.83;;
13933;SDS011;7039;52.168;9.866;2023-09-12T10:13:42;6.25;;;5.65;;
13933;SDS011;7039;52.168;9.866;2023-09-12T10:16:13;8.23;;;5.90;;
13933;SDS011;7039;52.168;9.866;2023-09-12T10:18:53;7.50;;;6.03;;
13933;SDS011;7039;52.168;9.866;2023-09-12T10:21:27;7.10;;;6.13;;
13933;SDS011;7039;52.168;9.866;2023-09-12T10:23:56;8.77;;;5.57;;
13933;SDS011;7039;52.168;9.866;2023-09-12T10:26:24;6.07;;;5.47;;
13933;SDS011;7039;52.168;9.866;2023-09-12T10:28:51;5.97;;;5.07;;
13933;SDS011;7039;52.168;9.866;2023-09-12T10:31:20;5.67;;;4.93;;
13933;SDS011;7039;52.168;9.866;2023-09-12T10:33:49;6.07;;;4.97;;
13933;SDS011;7039;52.168;9.866;2023-09-12T10:36:20;5.28;;;4.78;;
13933;SDS011;7039;52.168;9.866;2023-09-12T10:38:48;5.05;;;4.55;;
13933;SDS011;7039;52.168;9.866;2023-09-12T10:41:16;5.43;;;4.93;;
13933;SDS011;7039;52.168;9.866;2023-09-12T10:43:44;8.88;;;5.05;;
13933;SDS011;7039;52.168;9.866;2023-09-12T10:46:15;6.37;;;5.47;;
13933;SDS011;7039;52.168;9.866;2023-09-12T10:48:41;5.67;;;5.03;;
13933;SDS011;7039;52.168;9.866;2023-09-12T10:51:08;8.37;;;5.67;;
13933;SDS011;7039;52.168;9.866;2023-09-12T10:53:38;5.80;;;5.20;;
13933;SDS011;7039;52.168;9.866;2023-09-12T10:56:14;5.50;;;5.00;;
13933;SDS011;7039;52.168;9.866;2023-09-12T11:01:39;5.63;;;5.13;;
13933;SDS011;7039;52.168;9.866;2023-09-12T11:06:59;7.33;;;6.10;;
13933;SDS011;7039;52.168;9.866;2023-09-12T11:09:27;6.73;;;6.03;;
13933;SDS011;7039;52.168;9.866;2023-09-12T11:11:58;7.07;;;6.37;;
13933;SDS011;7039;52.168;9.866;2023-09-12T11:14:27;7.47;;;6.70;;
13933;SDS011;7039;52.168;9.866;2023-09-12T11:19:47;8.90;;;7.10;;
13933;SDS011;7039;52.168;9.866;2023-09-12T11:22:21;7.07;;;6.37;;
13933;SDS011;7039;52.168;9.866;2023-09-12T11:24:49;7.33;;;6.63;;
13933;SDS011;7039;52.168;9.866;2023-09-12T11:27:16;7.90;;;6.70;;
13933;SDS011;7039;52.168;9.866;2023-09-12T11:29:43;9.57;;;6.27;;
13933;SDS011;7039;52.168;9.866;2023-09-12T11:32:09;9.27;;;7.00;;
13933;SDS011;7039;52.168;9.866;2023-09-12T11:34:36;10.33;;;7.10;;
13933;SDS011;7039;52.168;9.866;2023-09-12T11:37:04;8.67;;;6.53;;
13933;SDS011;7039;52.168;9.866;2023-09-12T11:39:31;8.10;;;7.13;;
13933;SDS011;7039;52.168;9.866;2023-09-12T11:42:00;7.33;;;6.60;;
13933;SDS011;7039;52.168;9.866;2023-09-12T11:44:27;7.53;;;6.53;;
13933;SDS011;7039;52.168;9.866;2023-09-12T11:46:56;8.07;;;6.90;;
13933;SDS011;7039;52.168;9.866;2023-09-12T11:49:28;9.63;;;7.30;;
13933;SDS011;7039;52.168;9.866;2023-09-12T11:52:01;7.67;;;6.87;;
13933;SDS011;7039;52.168;9.866;2023-09-12T11:54:28;7.50;;;6.80;;
13933;SDS011;7039;52.168;9.866;2023-09-12T11:56:56;7.27;;;6.53;;
13933;SDS011;7039;52.168;9.866;2023-09-12T11:59:26;7.40;;;6.60;;
13933;SDS011;7039;52.168;9.866;2023-09-12T12:01:52;7.63;;;6.90;;
13933;SDS011;7039;52.168;9.866;2023-09-12T12:04:20;10.80;;;6.93;;
13933;SDS011;7039;52.168;9.866;2023-09-12T12:06:49;8.00;;;6.53;;
13933;SDS011;7039;52.168;9.866;2023-09-12T12:09:16;8.43;;;7.27;;
13933;SDS011;7039;52.168;9.866;2023-09-12T12:11:44;8.60;;;6.60;;
13933;SDS011;7039;52.168;9.866;2023-09-12T12:14:11;7.40;;;6.53;;
13933;SDS011;7039;52.168;9.866;2023-09-12T12:16:41;7.90;;;6.57;;
13933;SDS011;7039;52.168;9.866;2023-09-12T12:19:08;8.55;;;6.53;;
13933;SDS011;7039;52.168;9.866;2023-09-12T12:21:36;6.82;;;6.18;;
13933;SDS011;7039;52.168;9.866;2023-09-12T12:24:03;7.00;;;5.50;;
13933;SDS011;7039;52.168;9.866;2023-09-12T12:26:31;6.75;;;5.93;;
13933;SDS011;7039;52.168;9.866;2023-09-12T12:28:59;6.28;;;5.65;;
13933;SDS011;7039;52.168;9.866;2023-09-12T12:31:26;6.10;;;5.43;;
13933;SDS011;7039;52.168;9.866;2023-09-12T12:33:54;9.90;;;6.00;;
13933;SDS011;7039;52.168;9.866;2023-09-12T12:36:20;7.05;;;6.35;;
13933;SDS011;7039;52.168;9.866;2023-09-12T12:38:48;7.55;;;6.55;;
13933;SDS011;7039;52.168;9.866;2023-09-12T12:41:16;7.63;;;6.93;;
13933;SDS011;7039;52.168;9.866;2023-09-12T12:43:49;8.88;;;6.50;;
13933;SDS011;7039;52.168;9.866;2023-09-12T12:46:16;7.53;;;6.70;;
13933;SDS011;7039;52.168;9.866;2023-09-12T12:48:44;8.13;;;7.27;;
13933;SDS011;7039;52.168;9.866;2023-09-12T12:51:16;11.07;;;8.40;;
13933;SDS011;7039;52.168;9.866;2023-09-12T12:53:44;11.33;;;8.70;;
13933;SDS011;7039;52.168;9.866;2023-09-12T12:56:13;11.50;;;8.47;;
13933;SDS011;7039;52.168;9.866;2023-09-12T12:58:50;13.43;;;9.50;;
13933;SDS011;7039;52.168;9.866;2023-09-12T13:01:18;11.23;;;9.20;;
13933;SDS011;7039;52.168;9.866;2023-09-12T13:03:44;13.03;;;9.33;;
13933;SDS011;7039;52.168;9.866;2023-09-12T13:06:11;11.07;;;8.67;;
13933;SDS011;7039;52.168;9.866;2023-09-12T13:08:44;15.07;;;10.00;;
13933;SDS011;7039;52.168;9.866;2023-09-12T13:11:12;13.93;;;9.80;;
13933;SDS011;7039;52.168;9.866;2023-09-12T13:13:39;9.30;;;7.67;;
13933;SDS011;7039;52.168;9.866;2023-09-12T13:16:07;12.93;;;9.07;;
13933;SDS011;7039;52.168;9.866;2023-09-12T13:18:35;10.00;;;7.73;;
13933;SDS011;7039;52.168;9.866;2023-09-12T13:21:02;8.93;;;6.90;;
13933;SDS011;7039;52.168;9.866;2023-09-12T13:23:29;8.80;;;6.85;;
13933;SDS011;7039;52.168;9.866;2023-09-12T13:25:57;10.32;;;8.23;;
13933;SDS011;7039;52.168;9.866;2023-09-12T13:28:23;8.43;;;7.63;;
13933;SDS011;7039;52.168;9.866;2023-09-12T13:30:50;10.02;;;7.68;;
13933;SDS011;7039;52.168;9.866;2023-09-12T13:33:17;7.40;;;6.68;;
13933;SDS011;7039;52.168;9.866;2023-09-12T13:35:43;8.27;;;6.43;;
13933;SDS011;7039;52.168;9.866;2023-09-12T13:38:10;8.80;;;7.20;;
13933;SDS011;7039;52.168;9.866;2023-09-12T13:40:36;7.40;;;6.53;;
13933;SDS011;7039;52.168;9.866;2023-09-12T13:43:05;11.00;;;6.60;;
13933;SDS011;7039;52.168;9.866;2023-09-12T13:45:32;6.72;;;5.80;;
13933;SDS011;7039;52.168;9.866;2023-09-12T13:47:59;6.93;;;5.97;;
13933;SDS011;7039;52.168;9.866;2023-09-12T13:50:26;6.60;;;6.00;;
13933;SDS011;7039;52.168;9.866;2023-09-12T13:52:53;6.75;;;5.88;;
13933;SDS011;7039;52.168;9.866;2023-09-12T13:55:21;5.45;;;4.95;;
13933;SDS011;7039;52.168;9.866;2023-09-12T13:57:47;5.30;;;4.80;;
13933;SDS011;7039;52.168;9.866;2023-09-12T14:00:15;6.00;;;5.32;;
13933;SDS011;7039;52.168;9.866;2023-09-12T14:02:41;5.47;;;4.95;;
13933;SDS011;7039;52.168;9.866;2023-09-12T14:05:09;5.07;;;4.57;;
13933;SDS011;7039;52.168;9.866;2023-09-12T14:07:35;5.43;;;4.30;;
13933;SDS011;7039;52.168;9.866;2023-09-12T14:10:03;4.20;;;3.65;;
13933;SDS011;7039;52.168;9.866;2023-09-12T14:12:30;4.32;;;3.90;;
13933;SDS011;7039;52.168;9.866;2023-09-12T14:14:56;4.25;;;3.60;;
13933;SDS011;7039;52.168;9.866;2023-09-12T14:17:24;3.70;;;3.40;;
13933;SDS011;7039;52.168;9.866;2023-09-12T14:19:52;4.25;;;3.10;;
13933;SDS011;7039;52.168;9.866;2023-09-12T14:22:18;3.97;;;3.10;;
13933;SDS011;7039;52.168;9.866;2023-09-12T14:24:46;5.68;;;3.00;;
13933;SDS011;7039;52.168;9.866;2023-09-12T14:27:12;2.97;;;2.72;;
13933;SDS011;7039;52.168;9.866;2023-09-12T14:29:39;3.35;;;2.58;;
13933;SDS011;7039;52.168;9.866;2023-09-12T14:32:05;3.55;;;3.10;;
13933;SDS011;7039;52.168;9.866;2023-09-12T14:34:33;2.85;;;2.65;;
13933;SDS011;7039;52.168;9.866;2023-09-12T14:37:00;2.95;;;2.50;;
13933;SDS011;7039;52.168;9.866;2023-09-12T14:39:26;3.53;;;2.47;;
13933;SDS011;7039;52.168;9.866;2023-09-12T14:41:52;3.35;;;3.03;;
13933;SDS011;7039;52.168;9.866;2023-09-12T14:44:19;3.22;;;2.83;;
13933;SDS011;7039;52.168;9.866;2023-09-12T14:46:46;3.08;;;2.78;;
13933;SDS011;7039;52.168;9.866;2023-09-12T14:49:13;2.80;;;2.47;;
13933;SDS011;7039;52.168;9.866;2023-09-12T14:51:41;2.78;;;2.40;;
13933;SDS011;7039;52.168;9.866;2023-09-12T14:54:07;6.03;;;3.17;;